Archival Weather

Snohomish County (Paine Fld)

Everett, Washington (KPAE)

Report from: Saturday, November 11, 2023 1:53 PM PST
Current time: Sunday, June 16, 2024 11:18 PM PDT

Current weather – Weather history – Daily summaries
Weather forecast

Temperature11.1°C (52.0°F)
Dew point6.1°C (43.0°F)
Winds 14 kts (7.2 m/s, 16.1 mph) South-Southwest (210°)
Wind gusts 21 kts (10.8 m/s, 24.2 mph)
Visibility10 mi. (16.1 km)
Clouds Ceiling: Broken clouds 1,500 ft. (457 m)
Altimeter29.92 in.Hg (1013 mB)
Relative humidity71 %
Density altitude-327 ft. (-100 m)
Sea-level pressure101.3 kPa (1013 mB, 29.92 in.Hg)
Remarks Automated weather observing station with precipitation discriminator
Flight conditions Marginal Visual Meteorological Conditions
Raw dataKPAE 112153Z 21014G21KT 10SM BKN015 11/06 A2992 RMK AO2 SLP132 T01110061
An error has occurred. This application may no longer respond until reloaded. Reload 🗙